Terminal Aerodrome Forecast
Issued by NWS

Home | Current Version | Previous Version | Graphics & Text | Print | Product List | Glossary Off
Versions: 1 2 3 4 5 6 7 8 9 10 11 12 13 14 15

000
FTUS45 KGGW 190500
TAFSDY
TAF
KSDY 190525Z 1906/2006 VRB05KT P6SM BKN070
     FM190900 26020KT P6SM BKN070
     FM191500 29018G27KT P6SM SKC
     FM200300 VRB05KT P6SM SKC
      AMD LTD TO CLD VIS AND WIND=

USA.gov is the U.S. government's official web portal to all federal, state and local government web resources and services.